Samtredia, Georgia

9:42 PM GET on September 25, 2016 (GMT +0400)
Kutaisi Kopitnari Airport | | Change Station

Elev 223 ft 42.18 °N, 42.48 °E | Updated 12 minutes ago

Scattered Clouds
Scattered Clouds
50 °F
Feels Like 50 °F
N
6
Wind Variable Wind from ESE

Today
High -- | Low -- °F
--% Chance of Precip.
Yesterday
High -- | Low -- °F
Precip. -- in
Pressure 30.09 in
Visibility 6.2 miles
Clouds Scattered Clouds 4900 ft
Dew Point 48 °F
Humidity 94%
Rainfall 0.00 in
Snow Depth Not available.
7:01 AM 7:02 PM
Waning Crescent, 26% visible
METAR UGKO 251730Z 12005KT 9999 SCT049 10/09 Q1019 R07/09//70 NOSIG
Pressure 30.09 in
Visibility 6.2 miles
Clouds Scattered Clouds 4900 ft
Dew Point 48 °F
Humidity 94%
Rainfall 0.00 in
Snow Depth Not available.
7:01 AM 7:02 PM
Waning Crescent, 26% visible
METAR UGKO 251730Z 12005KT 9999 SCT049 10/09 Q1019 R07/09//70 NOSIG

10-Day Weather Forecast

×

Almanac

Astronomy

Sep. 25, 2016 Rise Set
Actual Time
Civil Twilight
Nautical Twilight
Astronomical Twilight
Moon
Length of Visible Light
Length of Day
Tomorrow will be .
, % of the Moon is Illuminated

Today's Extremes

Country Highs Country Lows

Community

WunderPhotos

Upload Photos

1,941,674 photos uploaded!

WunderBlog® & News

Nearby

Air Quality

  Air Quality AQ Index Pollutant
Not available.

Snow Depth

Station Depth Elevation

Earthquake Activity

City Distance Mag. Time & Date
Minimum magnitude displayed is 2.5.

Coastal Water Temperatures

Place Temperature

Stations

Nearby Weather Stations

Station Location Temp. Windchill Dew Point Humidity Wind Precip. Elev Updated Type